createdAt,value
2022-08-05T00:00:19.335Z,27.30
2022-08-05T00:02:51.531Z,27.60
2022-08-05T00:06:03.096Z,27.80
2022-08-05T00:08:32.695Z,27.90
2022-08-05T00:11:00.842Z,28.10
2022-08-05T00:13:39.024Z,28.10
2022-08-05T00:16:10.977Z,28.10
2022-08-05T00:18:44.253Z,27.90
2022-08-05T00:21:14.481Z,27.60
2022-08-05T00:23:46.718Z,27.60
2022-08-05T00:26:22.549Z,27.50
2022-08-05T00:28:52.699Z,27.50
2022-08-05T00:31:53.763Z,27.70
2022-08-05T00:34:55.197Z,27.60
2022-08-05T00:37:09.800Z,27.50
2022-08-05T00:39:57.806Z,27.50
2022-08-05T00:42:33.845Z,27.50
2022-08-05T00:45:08.392Z,27.60
2022-08-05T00:47:57.386Z,27.60
2022-08-05T00:50:25.928Z,27.60
2022-08-05T00:52:55.380Z,27.90
2022-08-05T00:55:42.399Z,27.90
2022-08-05T00:58:11.600Z,28.00
2022-08-05T01:00:42.497Z,27.80
2022-08-05T01:03:22.239Z,27.60
2022-08-05T01:05:51.661Z,27.90
2022-08-05T01:08:41.930Z,27.90
2022-08-05T01:11:22.370Z,27.90
2022-08-05T01:14:01.375Z,28.00
2022-08-05T01:16:38.757Z,27.90
2022-08-05T01:19:20.979Z,27.90
2022-08-05T01:22:23.944Z,27.80
2022-08-05T01:25:14.882Z,27.20
2022-08-05T01:28:22.003Z,26.80
2022-08-05T01:30:55.891Z,26.80
2022-08-05T01:33:35.337Z,26.80
2022-08-05T01:36:13.219Z,26.30
2022-08-05T01:38:48.473Z,25.90
2022-08-05T01:41:21.737Z,26.00
2022-08-05T01:43:52.166Z,26.10
2022-08-05T01:46:43.161Z,25.80
2022-08-05T01:49:23.907Z,26.00
2022-08-05T01:51:58.228Z,25.90
2022-08-05T01:54:31.250Z,25.60
2022-08-05T01:58:10.295Z,25.90
2022-08-05T01:59:52.718Z,26.00
2022-08-05T02:02:26.208Z,26.10
2022-08-05T02:05:00.210Z,26.00
2022-08-05T02:07:30.395Z,26.00
2022-08-05T02:10:00.382Z,25.80
2022-08-05T02:12:35.669Z,25.70
2022-08-05T02:15:12.295Z,25.70
2022-08-05T02:18:30.687Z,25.70
2022-08-05T02:20:47.317Z,25.80
2022-08-05T02:23:22.445Z,25.70
2022-08-05T02:25:52.329Z,26.00
2022-08-05T02:28:28.824Z,26.00
2022-08-05T02:31:04.053Z,26.20
2022-08-05T02:33:39.388Z,26.40
2022-08-05T02:36:13.395Z,26.40
2022-08-05T02:38:53.159Z,26.50
2022-08-05T02:41:23.624Z,26.50
2022-08-05T02:44:02.937Z,26.50
2022-08-05T02:46:35.187Z,26.70
2022-08-05T02:49:06.409Z,26.80
2022-08-05T02:52:03.895Z,26.90
2022-08-05T02:54:35.702Z,26.90
2022-08-05T02:57:10.452Z,26.70
2022-08-05T02:59:57.613Z,26.70
2022-08-05T03:02:30.804Z,26.60
2022-08-05T03:05:02.317Z,26.70
2022-08-05T03:08:00.809Z,26.50
2022-08-05T03:10:24.751Z,26.70
2022-08-05T03:12:55.022Z,26.70
2022-08-05T03:15:24.279Z,26.40
2022-08-05T03:17:55.747Z,26.20
2022-08-05T03:20:27.359Z,26.40
2022-08-05T03:22:57.967Z,26.60
2022-08-05T03:25:33.974Z,26.40
2022-08-05T03:28:18.479Z,26.10
2022-08-05T03:30:49.756Z,25.50
2022-08-05T03:33:19.669Z,25.70
2022-08-05T03:35:50.110Z,25.80
2022-08-05T03:38:32.887Z,25.70
2022-08-05T03:41:08.190Z,25.60
2022-08-05T03:44:09.067Z,25.70
2022-08-05T03:46:29.990Z,25.50
2022-08-05T03:49:02.077Z,25.70
2022-08-05T03:52:37.091Z,25.50
2022-08-05T03:55:34.546Z,25.70
2022-08-05T03:57:41.552Z,26.00
2022-08-05T04:00:15.487Z,26.20
2022-08-05T04:02:58.092Z,26.50
2022-08-05T04:05:34.012Z,26.50
2022-08-05T04:08:14.467Z,26.70
2022-08-05T04:10:45.035Z,26.70
2022-08-05T04:13:13.318Z,26.60
2022-08-05T04:15:52.827Z,26.60
2022-08-05T04:18:30.249Z,26.30
2022-08-05T04:20:59.331Z,26.20
2022-08-05T04:24:01.091Z,25.80
2022-08-05T04:26:19.052Z,25.90
2022-08-05T04:28:50.871Z,26.20
2022-08-05T04:31:19.973Z,26.20
2022-08-05T04:34:18.639Z,26.40
2022-08-05T04:36:45.712Z,26.50
2022-08-05T04:39:19.885Z,26.80
2022-08-05T04:41:48.740Z,26.90
2022-08-05T04:44:21.553Z,26.80
2022-08-05T04:46:58.506Z,26.60
2022-08-05T04:49:39.053Z,26.40
2022-08-05T04:52:15.502Z,26.50
2022-08-05T04:54:45.423Z,26.30
2022-08-05T04:57:13.814Z,26.40
2022-08-05T04:59:42.241Z,26.20
2022-08-05T05:02:36.261Z,26.30
2022-08-05T05:05:26.064Z,26.30
2022-08-05T05:07:56.604Z,26.50
2022-08-05T05:10:33.285Z,26.50
2022-08-05T05:13:03.881Z,26.40
2022-08-05T05:15:54.260Z,26.40
2022-08-05T05:18:31.031Z,26.40
2022-08-05T05:21:01.784Z,26.10
2022-08-05T05:24:01.977Z,26.20
2022-08-05T05:26:19.948Z,26.40
2022-08-05T05:28:57.243Z,26.10
2022-08-05T05:31:25.551Z,26.30
2022-08-05T05:34:02.203Z,26.60
2022-08-05T05:36:31.732Z,26.80
2022-08-05T05:39:00.559Z,26.90
2022-08-05T05:41:39.985Z,27.10
2022-08-05T05:44:35.848Z,27.30
2022-08-05T05:46:58.060Z,27.30
2022-08-05T05:49:26.701Z,27.50
2022-08-05T05:51:55.010Z,27.70
2022-08-05T05:54:50.084Z,27.80
2022-08-05T05:57:13.873Z,27.80
2022-08-05T05:59:52.448Z,27.60
2022-08-05T06:02:32.900Z,27.60
2022-08-05T06:05:10.167Z,27.50
2022-08-05T06:08:01.351Z,27.60
2022-08-05T06:10:36.744Z,27.60
2022-08-05T06:13:07.360Z,27.80
2022-08-05T06:16:30.286Z,28.10
2022-08-05T06:18:30.831Z,28.20
2022-08-05T06:21:00.125Z,28.30
2022-08-05T06:23:43.462Z,28.50
2022-08-05T06:26:21.601Z,28.50
2022-08-05T06:28:54.539Z,28.70
2022-08-05T06:31:22.798Z,28.70
2022-08-05T06:34:07.455Z,28.70
2022-08-05T06:36:57.135Z,29.00
2022-08-05T06:39:26.867Z,29.20
2022-08-05T06:41:58.672Z,29.00
2022-08-05T06:44:28.880Z,28.80
2022-08-05T06:46:57.654Z,28.80
2022-08-05T06:50:01.371Z,29.00
2022-08-05T06:52:37.051Z,29.20
2022-08-05T06:55:03.382Z,29.20
2022-08-05T06:58:02.880Z,29.30
2022-08-05T07:00:22.463Z,29.30
2022-08-05T07:02:54.323Z,28.90
2022-08-05T07:05:31.861Z,29.10
2022-08-05T07:08:10.650Z,29.10
2022-08-05T07:10:53.083Z,29.20
2022-08-05T07:13:58.057Z,29.40
2022-08-05T07:18:00.996Z,29.60
2022-08-05T07:22:27.835Z,30.00
2022-08-05T07:24:57.894Z,29.90
2022-08-05T07:27:27.625Z,30.00
2022-08-05T07:30:24.188Z,30.00
2022-08-05T07:33:00.240Z,30.20
2022-08-05T07:36:03.870Z,30.30
2022-08-05T07:38:32.037Z,30.50
2022-08-05T07:41:16.875Z,30.50
2022-08-05T07:43:56.396Z,30.20
2022-08-05T07:46:26.632Z,30.30
2022-08-05T07:49:02.554Z,30.40
2022-08-05T07:51:41.110Z,30.40
2022-08-05T07:54:30.789Z,30.50
2022-08-05T07:57:17.720Z,30.40
2022-08-05T07:59:51.056Z,30.50
2022-08-05T08:02:19.424Z,30.60
2022-08-05T08:04:56.774Z,30.60
2022-08-05T08:07:28.384Z,30.90
2022-08-05T08:09:57.305Z,31.20
2022-08-05T08:12:36.903Z,31.30
2022-08-05T08:15:14.156Z,31.50
2022-08-05T08:17:50.577Z,31.40
2022-08-05T08:20:59.993Z,31.50
2022-08-05T08:24:02.093Z,31.50
2022-08-05T08:26:02.767Z,31.70
2022-08-05T08:28:36.350Z,32.00
2022-08-05T08:31:05.914Z,31.90
2022-08-05T08:33:38.155Z,31.90
2022-08-05T08:38:57.949Z,32.10
2022-08-05T08:41:52.377Z,32.20
2022-08-05T08:45:18.857Z,32.30
2022-08-05T08:47:47.725Z,32.20
2022-08-05T08:50:14.573Z,32.30
2022-08-05T08:52:53.116Z,32.40
2022-08-05T08:55:32.035Z,32.50
2022-08-05T08:58:13.185Z,32.60
2022-08-05T09:00:44.602Z,32.60
2022-08-05T09:03:16.207Z,32.60
2022-08-05T09:06:09.169Z,32.80
2022-08-05T09:08:40.158Z,32.90
2022-08-05T09:11:13.766Z,33.10
2022-08-05T09:14:09.361Z,33.10
2022-08-05T09:16:31.795Z,33.20
2022-08-05T09:19:00.177Z,33.20
2022-08-05T09:22:22.888Z,33.10
2022-08-05T09:24:19.501Z,33.20
2022-08-05T09:26:53.732Z,33.40
2022-08-05T09:29:30.736Z,33.40
2022-08-05T09:32:41.546Z,33.50
2022-08-05T09:34:54.983Z,33.60
2022-08-05T09:38:16.422Z,33.50
2022-08-05T09:40:32.108Z,33.70
2022-08-05T09:43:01.825Z,33.80
2022-08-05T09:46:06.908Z,33.80
2022-08-05T09:48:29.279Z,33.80
2022-08-05T09:51:00.502Z,33.90
2022-08-05T09:53:54.281Z,34.20
2022-08-05T09:56:28.403Z,34.10
2022-08-05T09:59:01.654Z,34.00
2022-08-05T10:01:33.769Z,34.20
2022-08-05T10:04:10.314Z,34.30
2022-08-05T10:06:40.657Z,34.40
2022-08-05T10:09:28.350Z,34.20
2022-08-05T10:12:18.514Z,34.30
2022-08-05T10:15:20.338Z,34.50
2022-08-05T10:18:08.946Z,34.40
2022-08-05T10:20:41.746Z,34.50
2022-08-05T10:23:34.048Z,34.70
2022-08-05T10:26:03.291Z,34.80
2022-08-05T10:28:37.693Z,34.70
2022-08-05T10:32:53.760Z,34.70
2022-08-05T10:33:55.891Z,34.60
2022-08-05T10:36:26.012Z,34.60
2022-08-05T10:39:05.282Z,34.70
2022-08-05T10:41:48.197Z,34.90
2022-08-05T10:44:22.189Z,34.90
2022-08-05T10:46:54.364Z,35.00
2022-08-05T10:49:26.876Z,35.00
2022-08-05T10:52:05.209Z,35.00
2022-08-05T10:54:56.254Z,35.10
2022-08-05T10:57:30.975Z,35.20
2022-08-05T11:00:19.675Z,35.00
2022-08-05T11:03:23.831Z,35.00
2022-08-05T11:06:16.184Z,35.10
2022-08-05T11:09:16.823Z,35.20
2022-08-05T11:11:53.279Z,35.30
2022-08-05T11:14:49.507Z,35.40
2022-08-05T11:17:56.722Z,35.40
2022-08-05T11:20:51.422Z,35.40
2022-08-05T11:24:04.419Z,35.50
2022-08-05T11:26:32.140Z,35.40
2022-08-05T11:29:12.633Z,35.30
2022-08-05T11:31:57.877Z,35.40
2022-08-05T11:34:47.546Z,35.50
2022-08-05T11:38:28.625Z,35.60
2022-08-05T11:41:03.418Z,35.40
2022-08-05T11:44:05.439Z,35.30
2022-08-05T11:46:36.044Z,35.30
2022-08-05T11:49:10.000Z,35.40
2022-08-05T11:51:43.632Z,35.60
2022-08-05T11:54:14.049Z,35.60
2022-08-05T11:56:50.180Z,35.70
2022-08-05T11:59:22.611Z,35.70
2022-08-05T12:01:55.633Z,35.50
2022-08-05T12:04:26.114Z,35.60
2022-08-05T12:06:56.870Z,35.60
2022-08-05T12:09:37.892Z,35.70
2022-08-05T12:12:23.285Z,35.60
2022-08-05T12:14:54.243Z,35.80
2022-08-05T12:18:02.533Z,35.80
2022-08-05T12:20:25.538Z,35.80
2022-08-05T12:23:12.335Z,35.80
2022-08-05T12:25:56.683Z,35.60
2022-08-05T12:28:36.740Z,35.60
2022-08-05T12:31:06.325Z,35.70
2022-08-05T12:33:37.219Z,35.80
2022-08-05T12:36:09.305Z,35.90
2022-08-05T12:38:41.322Z,35.90
2022-08-05T12:41:13.187Z,35.90
2022-08-05T12:43:52.906Z,35.80
2022-08-05T12:46:29.542Z,35.90
2022-08-05T12:49:01.455Z,36.00
2022-08-05T12:52:14.160Z,36.10
2022-08-05T12:54:38.957Z,35.90
2022-08-05T13:02:02.757Z,36.10
2022-08-05T13:02:41.010Z,36.10
2022-08-05T13:05:11.201Z,36.00
2022-08-05T13:08:00.702Z,36.00
2022-08-05T13:10:33.772Z,36.00
2022-08-05T13:13:08.902Z,36.10
2022-08-05T13:15:50.334Z,36.20
2022-08-05T13:18:20.085Z,36.10
2022-08-05T13:20:49.982Z,36.10
2022-08-05T13:23:22.892Z,36.10
2022-08-05T13:25:59.705Z,36.20
2022-08-05T13:28:32.352Z,36.00
2022-08-05T13:31:10.931Z,36.00
2022-08-05T13:34:20.920Z,36.00
2022-08-05T13:36:30.685Z,36.00
2022-08-05T13:38:58.984Z,36.00
2022-08-05T13:41:35.940Z,36.10
2022-08-05T13:44:06.269Z,36.00
2022-08-05T13:47:01.751Z,36.10
2022-08-05T13:49:23.086Z,36.10
2022-08-05T13:51:51.969Z,36.00
2022-08-05T13:54:24.993Z,36.00
2022-08-05T13:56:55.175Z,36.10
2022-08-05T13:59:27.073Z,36.10
2022-08-05T14:01:58.687Z,36.00
2022-08-05T14:04:51.197Z,36.20
2022-08-05T14:07:55.563Z,36.30
2022-08-05T14:10:18.973Z,36.10
2022-08-05T14:12:58.368Z,36.10
2022-08-05T14:16:08.192Z,36.10
2022-08-05T14:18:18.550Z,36.00
2022-08-05T14:20:52.859Z,36.20
2022-08-05T14:23:25.015Z,36.20
2022-08-05T14:25:58.063Z,36.20
2022-08-05T14:28:29.706Z,36.30
2022-08-05T14:30:58.302Z,36.20
2022-08-05T14:33:26.589Z,36.20
2022-08-05T14:35:55.113Z,36.20
2022-08-05T14:38:32.683Z,36.00
2022-08-05T14:41:07.544Z,36.00
2022-08-05T14:43:58.953Z,36.00
2022-08-05T14:46:29.857Z,36.20
2022-08-05T14:49:06.195Z,36.00
2022-08-05T14:51:37.643Z,36.00
2022-08-05T14:54:28.559Z,36.00
2022-08-05T14:56:55.424Z,36.00
2022-08-05T14:59:25.466Z,36.00
2022-08-05T15:01:58.356Z,35.80
2022-08-05T15:04:29.033Z,35.90
2022-08-05T15:06:57.815Z,36.00
2022-08-05T15:09:52.587Z,36.00
2022-08-05T15:12:16.430Z,36.00
2022-08-05T15:14:49.948Z,35.90
2022-08-05T15:17:46.895Z,35.70
2022-08-05T15:20:18.255Z,35.80
2022-08-05T15:22:54.104Z,35.80
2022-08-05T15:25:51.331Z,35.80
2022-08-05T15:28:13.351Z,35.70
2022-08-05T15:30:46.516Z,35.80
2022-08-05T15:34:18.468Z,35.80
2022-08-05T15:36:16.807Z,35.80
2022-08-05T15:40:41.585Z,35.70
2022-08-05T15:41:56.455Z,35.80
2022-08-05T15:44:27.852Z,35.60
2022-08-05T15:46:58.004Z,35.60
2022-08-05T15:49:47.978Z,35.60
2022-08-05T15:52:29.578Z,35.60
2022-08-05T15:55:03.787Z,35.40
2022-08-05T16:00:11.346Z,35.30
2022-08-05T16:02:41.171Z,35.30
2022-08-05T16:05:11.700Z,35.40
2022-08-05T16:07:46.319Z,35.40
2022-08-05T16:10:15.060Z,35.30
2022-08-05T16:12:43.469Z,35.40
2022-08-05T16:15:18.095Z,35.30
2022-08-05T16:17:57.539Z,35.20
2022-08-05T16:20:27.999Z,35.20
2022-08-05T16:22:57.454Z,35.30
2022-08-05T16:25:32.364Z,35.20
2022-08-05T16:28:05.861Z,35.20
2022-08-05T16:30:36.192Z,35.20
2022-08-05T16:33:06.176Z,35.20
2022-08-05T16:35:42.194Z,35.20
2022-08-05T16:38:18.624Z,35.20
2022-08-05T16:41:00.162Z,35.10
2022-08-05T16:43:31.536Z,34.90
2022-08-05T16:46:04.248Z,34.90
2022-08-05T16:48:39.180Z,34.90
2022-08-05T16:51:09.343Z,34.80
2022-08-05T16:54:06.017Z,34.90
2022-08-05T16:56:29.300Z,34.90
2022-08-05T16:58:58.881Z,34.70
2022-08-05T17:01:52.535Z,34.80
2022-08-05T17:04:19.428Z,34.60
2022-08-05T17:06:53.021Z,34.40
2022-08-05T17:09:23.052Z,34.30
2022-08-05T17:11:55.915Z,34.30
2022-08-05T17:14:37.729Z,34.40
2022-08-05T17:17:14.305Z,34.30
2022-08-05T17:19:46.440Z,34.30
2022-08-05T17:22:25.009Z,34.30
2022-08-05T17:24:58.118Z,34.40
2022-08-05T17:27:33.882Z,34.20
2022-08-05T17:30:03.495Z,34.00
2022-08-05T17:32:32.382Z,34.10
2022-08-05T17:35:04.680Z,34.00
2022-08-05T17:37:40.234Z,34.00
2022-08-05T17:40:15.485Z,34.00
2022-08-05T17:42:50.465Z,33.90
2022-08-05T17:45:21.158Z,33.80
2022-08-05T17:47:54.470Z,33.80
2022-08-05T17:50:28.340Z,33.60
2022-08-05T17:53:00.483Z,33.60
2022-08-05T17:55:38.220Z,33.50
2022-08-05T17:58:11.185Z,33.40
2022-08-05T18:00:45.203Z,33.40
2022-08-05T18:03:39.286Z,33.40
2022-08-05T18:06:11.935Z,33.40
2022-08-05T18:08:45.521Z,33.30
2022-08-05T18:11:24.627Z,33.30
2022-08-05T18:14:04.175Z,33.20
2022-08-05T18:16:34.182Z,33.20
2022-08-05T18:19:05.175Z,33.10
2022-08-05T18:22:09.034Z,33.00
2022-08-05T18:24:25.737Z,33.00
2022-08-05T18:26:55.279Z,33.00
2022-08-05T18:29:40.808Z,32.90
2022-08-05T18:32:13.048Z,32.70
2022-08-05T18:34:56.391Z,32.80
2022-08-05T18:37:33.720Z,32.70
2022-08-05T18:40:34.094Z,32.70
2022-08-05T18:42:57.920Z,32.70
2022-08-05T18:45:41.592Z,32.70
2022-08-05T18:48:17.534Z,32.70
2022-08-05T18:52:05.933Z,32.70
2022-08-05T18:54:06.748Z,32.50
2022-08-05T18:56:38.057Z,32.60
2022-08-05T18:59:42.777Z,32.70
2022-08-05T19:01:59.666Z,32.70
2022-08-05T19:04:29.513Z,32.60
2022-08-05T19:06:59.396Z,32.60
2022-08-05T19:09:40.014Z,32.50
2022-08-05T19:12:10.634Z,32.30
2022-08-05T19:15:00.831Z,32.20
2022-08-05T19:17:28.495Z,32.30
2022-08-05T19:20:16.835Z,32.40
2022-08-05T19:22:45.932Z,32.10
2022-08-05T19:25:21.717Z,32.10
2022-08-05T19:27:59.643Z,32.20
2022-08-05T19:30:28.425Z,32.30
2022-08-05T19:32:56.745Z,32.30
2022-08-05T19:35:25.676Z,32.20
2022-08-05T19:38:13.944Z,32.10
2022-08-05T19:40:46.174Z,32.30
2022-08-05T19:44:04.545Z,32.20
2022-08-05T19:46:02.824Z,32.20
2022-08-05T19:48:31.245Z,31.90
2022-08-05T19:51:02.300Z,32.00
2022-08-05T19:54:03.349Z,32.10
2022-08-05T19:56:29.635Z,32.10
2022-08-05T19:58:58.309Z,32.00
2022-08-05T20:01:47.244Z,31.90
2022-08-05T20:04:16.197Z,31.80
2022-08-05T20:06:48.754Z,31.70
2022-08-05T20:09:17.240Z,31.70
2022-08-05T20:11:48.331Z,31.70
2022-08-05T20:14:26.593Z,31.80
2022-08-05T20:16:55.954Z,31.80
2022-08-05T20:19:24.898Z,31.50
2022-08-05T20:22:04.480Z,31.40
2022-08-05T20:24:34.402Z,31.40
2022-08-05T20:27:11.384Z,31.10
2022-08-05T20:29:40.104Z,31.40
2022-08-05T20:32:08.604Z,31.40
2022-08-05T20:34:38.773Z,31.20
2022-08-05T20:37:17.723Z,31.00
2022-08-05T20:39:58.280Z,30.90
2022-08-05T20:42:28.204Z,30.90
2022-08-05T20:44:56.561Z,31.10
2022-08-05T20:47:32.220Z,31.20
2022-08-05T20:50:01.879Z,31.20
2022-08-05T20:52:30.632Z,31.10
2022-08-05T20:55:54.744Z,31.10
2022-08-05T21:00:49.641Z,31.10
2022-08-05T21:03:23.201Z,31.00
2022-08-05T21:05:54.615Z,31.00
2022-08-05T21:08:32.936Z,31.10
2022-08-05T21:11:12.104Z,31.10
2022-08-05T21:13:48.252Z,31.10
2022-08-05T21:16:30.063Z,31.00
2022-08-05T21:19:00.404Z,31.00
2022-08-05T21:21:44.006Z,30.70
2022-08-05T21:24:19.364Z,31.00
2022-08-05T21:26:53.290Z,31.10
2022-08-05T21:29:32.015Z,31.00
2022-08-05T21:32:02.923Z,30.90
2022-08-05T21:34:32.907Z,30.80
2022-08-05T21:37:01.854Z,30.70
2022-08-05T21:39:31.007Z,30.60
2022-08-05T21:42:03.249Z,30.60
2022-08-05T21:44:32.009Z,30.50
2022-08-05T21:47:02.095Z,30.00
2022-08-05T21:49:58.499Z,29.40
2022-08-05T21:52:27.263Z,29.00
2022-08-05T21:54:56.728Z,29.20
2022-08-05T21:57:32.883Z,29.40
2022-08-05T22:00:05.323Z,29.70
2022-08-05T22:02:36.262Z,30.00
2022-08-05T22:05:05.399Z,30.20
2022-08-05T22:07:39.717Z,30.30
2022-08-05T22:10:25.553Z,30.30
2022-08-05T22:12:57.290Z,30.20
2022-08-05T22:16:01.425Z,30.10
2022-08-05T22:18:19.541Z,30.10
2022-08-05T22:20:48.042Z,30.10
2022-08-05T22:24:01.946Z,29.50
2022-08-05T22:26:49.471Z,29.30
2022-08-05T22:29:18.678Z,29.60
2022-08-05T22:31:47.519Z,30.00
2022-08-05T22:34:28.336Z,30.20
2022-08-05T22:36:58.461Z,30.30
2022-08-05T22:39:32.517Z,30.20
2022-08-05T22:42:10.590Z,30.10
2022-08-05T22:44:42.604Z,29.90
2022-08-05T22:47:29.441Z,30.10
2022-08-05T22:50:20.444Z,30.10
2022-08-05T22:52:50.092Z,30.00
2022-08-05T22:55:21.416Z,29.80
2022-08-05T22:57:50.544Z,29.90
2022-08-05T23:00:21.009Z,29.90
2022-08-05T23:02:50.304Z,29.80
2022-08-05T23:05:22.027Z,29.90
2022-08-05T23:07:50.960Z,29.80
2022-08-05T23:10:20.683Z,29.80
2022-08-05T23:12:54.933Z,29.70
2022-08-05T23:15:27.111Z,29.70
2022-08-05T23:18:00.824Z,29.80
2022-08-05T23:20:33.740Z,29.90
2022-08-05T23:23:08.550Z,29.90
2022-08-05T23:25:52.619Z,29.80
2022-08-05T23:28:28.699Z,29.90
2022-08-05T23:31:15.742Z,29.80
2022-08-05T23:34:06.783Z,29.70
2022-08-05T23:36:40.244Z,29.70
2022-08-05T23:39:17.491Z,29.80
2022-08-05T23:41:52.552Z,30.00
2022-08-05T23:44:27.859Z,29.80
2022-08-05T23:47:00.260Z,29.90
2022-08-05T23:49:36.054Z,29.80
2022-08-05T23:52:25.331Z,29.80
2022-08-05T23:54:54.238Z,29.80
2022-08-05T23:57:22.944Z,29.80
